Time;durP1;ratioP1;P1;durP2;ratioP2;P2;SDS_P1;SDS_P2;PMS_P1;PMS_P2;Temp;Humidity;BMP_temperature;BMP_pressure;BME280_temperature;BME280_humidity;BME280_pressure;Samples;Min_cycle;Max_cycle;Signal;HPM_P1;HPM_P2
2022/07/10 17:27:57;;;;;;;5.97;2.20;;;;;;;27.22;36.64;102249.59;5364063;27;20753;-72
2022/07/10 17:30:29;;;;;;;4.10;2.00;;;;;;;26.88;37.25;102254.28;5363052;27;20043;-72
2022/07/10 17:33:00;;;;;;;;;;;;;;;28.02;35.26;102252.75;5362649;27;20027;-72
2022/07/10 17:35:32;;;;;;;7.55;2.08;;;;;;;26.83;38.15;102251.03;5363494;27;19911;-72
2022/07/10 17:38:03;;;;;;;;;;;;;;;27.82;36.27;102256.69;5364365;27;20068;-73
2022/07/10 17:40:34;;;;;;;6.43;2.50;;;;;;;26.66;38.89;102243.13;5367790;27;19990;-72
2022/07/10 17:43:06;;;;;;;4.03;1.85;;;;;;;26.10;39.24;102242.69;5365268;27;20027;-73
2022/07/10 17:45:37;;;;;;;4.28;2.38;;;;;;;26.14;40.91;102242.44;5363128;27;20144;-72
2022/07/10 17:48:08;;;;;;;4.57;2.10;;;;;;;25.85;41.35;102239.50;5363803;27;20485;-72
2022/07/10 17:50:40;;;;;;;7.30;2.90;;;;;;;25.80;41.69;102241.56;5363417;27;20031;-73
2022/07/10 17:53:11;;;;;;;5.15;2.75;;;;;;;25.61;41.60;102240.84;5362845;27;20488;-72
2022/07/10 17:55:43;;;;;;;6.38;2.35;;;;;;;25.29;41.97;102238.94;5364321;27;20043;-72
2022/07/10 17:58:14;;;;;;;4.15;2.05;;;;;;;25.48;42.55;102236.16;5362200;27;20118;-73
2022/07/10 18:00:46;;;;;;;6.10;1.90;;;;;;;25.15;41.39;102233.44;5364077;27;20035;-73
2022/07/10 18:03:17;;;;;;;5.40;2.00;;;;;;;25.21;42.57;102233.13;5362835;27;20035;-72
2022/07/10 18:05:48;;;;;;;5.13;2.20;;;;;;;24.59;43.11;102230.00;5362681;27;20496;-72
2022/07/10 18:08:21;;;;;;;3.53;1.80;;;;;;;24.53;43.48;102231.13;5361638;27;20480;-73
2022/07/10 18:10:53;;;;;;;4.93;2.35;;;;;;;24.45;44.25;102243.09;5356248;27;20333;-73
2022/07/10 18:13:25;;;;;;;5.50;2.03;;;;;;;24.99;43.08;102233.34;5361762;27;20382;-72
2022/07/10 18:16:09;;;;;;;5.38;2.00;;;;;;;25.78;41.83;102230.13;5363804;27;20066;-72
2022/07/10 18:18:44;;;;;;;5.25;2.30;;;;;;;26.08;40.55;102232.06;5355058;27;20020;-72
2022/07/10 18:21:17;;;;;;;3.78;2.08;;;;;;;26.66;39.11;102227.97;5341285;27;20023;-72
2022/07/10 18:23:49;;;;;;;6.97;1.95;;;;;;;26.73;39.03;102231.13;5342119;27;20521;-72
2022/07/10 18:26:20;;;;;;;4.47;1.95;;;;;;;26.94;38.14;102234.34;5339374;27;20558;-73
2022/07/10 18:28:52;;;;;;;4.50;2.00;;;;;;;27.05;38.03;102229.22;5342859;27;20054;-73
2022/07/10 18:31:23;;;;;;;5.20;2.55;;;;;;;26.88;38.34;102224.00;5361746;27;20034;-75
2022/07/10 18:36:45;;;;;;;5.97;3.30;;;;;;;26.70;39.48;102228.63;5363812;27;20122;-73
2022/07/10 18:39:16;;;;;;;6.43;2.42;;;;;;;26.33;38.55;102230.72;5348827;27;20118;-73
2022/07/10 18:41:48;;;;;;;6.80;2.43;;;;;;;26.32;38.76;102231.66;5346329;27;20023;-74
2022/07/10 18:44:19;;;;;;;6.18;2.53;;;;;;;26.02;38.51;102230.63;5348538;27;20031;-73
2022/07/10 18:46:52;;;;;;;3.70;2.17;;;;;;;26.26;39.13;102230.22;5337064;27;20469;-74
2022/07/10 18:49:24;;;;;;;4.88;2.22;;;;;;;25.72;39.33;102235.78;5338241;27;20460;-75
2022/07/10 18:51:55;;;;;;;4.28;2.22;;;;;;;25.71;39.36;102231.38;5347125;27;20035;-74
2022/07/10 18:54:27;;;;;;;4.97;2.30;;;;;;;25.28;39.91;102236.34;5348535;27;20466;-73
2022/07/10 18:56:58;;;;;;;4.97;2.30;;;;;;;25.18;40.61;102240.41;5347012;27;20805;-73
2022/07/10 18:59:30;;;;;;;3.93;1.90;;;;;;;25.39;40.34;102230.44;5345631;27;20126;-74
2022/07/10 19:02:01;;;;;;;5.90;1.77;;;;;;;25.63;40.08;102229.16;5337713;27;20285;-74
2022/07/10 19:04:32;;;;;;;4.83;2.00;;;;;;;25.33;40.59;102233.47;5336089;27;20027;-73
2022/07/10 19:07:04;;;;;;;6.23;1.77;;;;;;;25.02;40.92;102225.19;5335425;27;20305;-74
2022/07/10 19:09:36;;;;;;;7.50;2.15;;;;;;;24.87;41.38;102228.63;5337272;27;20187;-74
2022/07/10 19:12:07;;;;;;;6.45;2.33;;;;;;;24.05;44.09;102229.00;5336652;27;20054;-73
2022/07/10 19:14:39;;;;;;;5.28;2.13;;;;;;;23.03;45.91;102233.47;5341683;27;20035;-74
2022/07/10 19:17:10;;;;;;;5.00;2.20;;;;;;;22.39;47.89;102232.50;5338783;27;20035;-74
2022/07/10 19:19:41;;;;;;;6.60;2.27;;;;;;;22.15;49.38;102229.88;5338861;27;20062;-74
2022/07/10 19:22:14;;;;;;;5.97;2.00;;;;;;;21.66;50.35;102232.56;5333219;27;20027;-73
2022/07/10 19:24:46;;;;;;;3.80;2.00;;;;;;;21.66;50.66;102229.91;5326950;28;20067;-73
2022/07/10 19:27:17;;;;;;;2.95;1.73;;;;;;;21.47;51.16;102232.31;5326975;28;20474;-73
2022/07/10 19:29:49;;;;;;;6.17;2.30;;;;;;;21.31;52.55;102241.75;5326792;28;20031;-73
2022/07/10 19:32:20;;;;;;;6.50;2.25;;;;;;;20.91;53.71;102243.09;5326756;28;20533;-73
2022/07/10 19:34:53;;;;;;;7.80;2.53;;;;;;;20.76;53.85;102240.03;5325388;28;20055;-73
2022/07/10 19:37:24;;;;;;;7.03;2.20;;;;;;;20.74;55.07;102231.28;5326847;28;20031;-73
2022/07/10 19:39:56;;;;;;;4.77;2.10;;;;;;;20.66;55.35;102237.75;5326735;28;20036;-73
2022/07/10 19:42:27;;;;;;;8.02;2.78;;;;;;;20.36;55.74;102243.91;5327024;28;20116;-73
2022/07/10 19:44:59;;;;;;;5.00;2.10;;;;;;;20.30;56.12;102257.34;5327423;28;20031;-73
2022/07/10 19:47:31;;;;;;;4.68;2.30;;;;;;;20.16;56.72;102244.53;5328741;28;20178;-72
2022/07/10 19:50:04;;;;;;;4.03;2.40;;;;;;;20.16;56.95;102249.81;5327553;28;20031;-71
2022/07/10 19:52:35;;;;;;;4.90;2.13;;;;;;;20.03;57.60;102254.59;5327421;28;20031;-73
2022/07/10 19:55:08;;;;;;;6.67;2.30;;;;;;;19.90;58.19;102258.53;5325803;28;20058;-73
2022/07/10 19:57:41;;;;;;;5.28;2.38;;;;;;;19.80;58.25;102263.22;5326391;28;20036;-74
2022/07/10 20:00:13;;;;;;;5.82;2.10;;;;;;;19.86;58.68;102259.50;5326348;28;20034;-73
2022/07/10 20:02:44;;;;;;;4.60;2.30;;;;;;;19.84;59.19;102264.84;5326002;28;20486;-73
2022/07/10 20:05:16;;;;;;;5.70;2.83;;;;;;;19.65;59.60;102264.44;5324757;28;20122;-72
2022/07/10 20:07:47;;;;;;;7.40;2.17;;;;;;;19.52;60.56;102267.47;5326335;28;20027;-73
2022/07/10 20:10:19;;;;;;;5.23;2.60;;;;;;;19.49;60.74;102264.00;5326199;28;20032;-73
2022/07/10 20:12:50;;;;;;;5.77;2.43;;;;;;;19.49;61.09;102258.69;5324571;28;20031;-73
2022/07/10 20:15:21;;;;;;;7.73;2.23;;;;;;;19.84;60.54;102264.00;5325999;28;20474;-73
2022/07/10 20:17:53;;;;;;;6.97;2.47;;;;;;;19.55;60.83;102262.13;5325904;28;20082;-73
2022/07/10 20:20:24;;;;;;;5.43;2.60;;;;;;;19.45;61.43;102254.41;5325634;28;20107;-73
2022/07/10 20:22:56;;;;;;;3.93;2.33;;;;;;;19.42;61.89;102262.44;5325994;28;20071;-72
2022/07/10 20:25:27;;;;;;;8.63;3.27;;;;;;;19.58;61.42;102259.38;5326007;27;20433;-72
2022/07/10 20:27:59;;;;;;;7.72;3.30;;;;;;;19.54;62.21;102263.88;5324409;28;20126;-73
2022/07/10 20:30:30;;;;;;;5.50;2.50;;;;;;;19.58;61.91;102259.38;5325703;28;20080;-72
2022/07/10 20:33:02;;;;;;;6.97;2.87;;;;;;;19.34;62.33;102260.91;5325269;28;20043;-73
2022/07/10 20:35:33;;;;;;;5.13;2.53;;;;;;;19.27;63.28;102255.78;5325673;28;20131;-73
2022/07/10 20:38:05;;;;;;;6.97;3.03;;;;;;;19.13;63.22;102260.53;5325502;28;20102;-73
2022/07/10 20:40:36;;;;;;;8.60;2.60;;;;;;;19.54;62.82;102260.38;5325715;28;20035;-73
2022/07/10 20:43:07;;;;;;;5.73;2.40;;;;;;;19.58;62.50;102268.19;5325691;28;20039;-73
2022/07/10 20:45:39;;;;;;;5.47;2.30;;;;;;;19.26;63.16;102261.97;5325609;28;20032;-72
2022/07/10 20:48:11;;;;;;;6.70;2.80;;;;;;;19.34;63.58;102267.06;5325234;28;20031;-73
2022/07/10 20:50:42;;;;;;;5.47;2.72;;;;;;;19.18;64.33;102269.22;5325400;28;20034;-74
2022/07/10 20:53:13;;;;;;;8.40;3.07;;;;;;;19.05;64.50;102267.81;5324042;28;20097;-73
2022/07/10 20:55:45;;;;;;;6.67;2.57;;;;;;;19.27;64.41;102271.63;5323659;28;20023;-73
2022/07/10 20:58:16;;;;;;;7.95;3.03;;;;;;;19.16;64.31;102265.75;5327804;27;20063;-74
2022/07/10 21:00:48;;;;;;;7.20;2.80;;;;;;;19.05;64.87;102265.16;5344944;27;20059;-72
2022/07/10 21:03:19;;;;;;;6.77;3.67;;;;;;;19.08;65.37;102262.44;5346266;27;20027;-74
2022/07/10 21:05:51;;;;;;;6.87;3.47;;;;;;;18.84;65.69;102264.75;5346227;27;20031;-75
2022/07/10 21:08:22;;;;;;;9.20;3.57;;;;;;;18.76;66.30;102261.41;5346324;27;20158;-75
2022/07/10 21:10:53;;;;;;;6.50;3.30;;;;;;;18.85;65.80;102266.50;5346562;27;20027;-75
2022/07/10 21:13:29;;;;;;;6.93;2.63;;;;;;;18.99;65.58;102265.31;5346396;27;20110;-74
2022/07/10 21:16:00;;;;;;;6.00;2.72;;;;;;;18.79;66.38;102266.63;5346437;27;20031;-75
2022/07/10 21:18:32;;;;;;;8.07;3.63;;;;;;;18.79;66.63;102269.25;5346163;27;20481;-74
2022/07/10 21:21:03;;;;;;;6.60;3.57;;;;;;;18.78;67.10;102265.72;5346432;27;20033;-75
2022/07/10 21:23:35;;;;;;;6.37;2.47;;;;;;;18.62;67.11;102260.84;5348164;27;20076;-75
2022/07/10 21:26:06;;;;;;;7.90;3.87;;;;;;;18.50;67.96;102267.25;5355699;28;20051;-74
2022/07/10 21:28:38;;;;;;;5.47;2.70;;;;;;;18.87;66.70;102272.63;5354205;28;20058;-75
2022/07/10 21:31:09;;;;;;;6.20;2.83;;;;;;;18.88;66.63;102269.06;5346928;28;20027;-75
2022/07/10 21:33:41;;;;;;;5.55;3.08;;;;;;;18.93;66.70;102277.75;5345060;28;20042;-75
2022/07/10 21:36:12;;;;;;;7.03;3.28;;;;;;;18.92;66.44;102278.66;5344885;28;20138;-75
2022/07/10 21:38:44;;;;;;;5.47;2.97;;;;;;;18.88;66.51;102276.97;5346037;28;20038;-75
2022/07/10 21:41:17;;;;;;;8.20;2.80;;;;;;;18.75;67.33;102273.72;5345919;28;20069;-74
2022/07/10 21:43:48;;;;;;;6.72;2.97;;;;;;;18.73;67.61;102272.03;5344669;28;20027;-75
2022/07/10 21:46:19;;;;;;;9.20;3.10;;;;;;;18.58;67.72;102278.56;5346683;28;20042;-75
2022/07/10 21:48:52;;;;;;;7.40;2.97;;;;;;;18.46;68.65;102284.97;5346850;28;20046;-75
2022/07/10 21:51:23;;;;;;;4.75;2.88;;;;;;;18.35;68.97;102274.66;5337601;28;20043;-75
2022/07/10 21:53:55;;;;;;;6.37;2.63;;;;;;;18.63;68.48;102278.41;5357487;28;20031;-74
2022/07/10 21:56:26;;;;;;;8.90;3.30;;;;;;;18.42;68.67;102278.03;5359690;28;20042;-74
2022/07/10 21:58:58;;;;;;;7.37;3.47;;;;;;;18.29;69.20;102282.69;5359061;28;20038;-75
2022/07/10 22:01:29;;;;;;;9.17;3.17;;;;;;;18.27;69.44;102275.69;5348886;28;20046;-74
2022/07/10 22:04:00;;;;;;;5.93;3.00;;;;;;;18.40;69.21;102267.50;5351661;28;20182;-75
2022/07/10 22:06:32;;;;;;;7.10;2.90;;;;;;;18.16;69.88;102258.34;5355074;28;20032;-75
2022/07/10 22:09:03;;;;;;;7.30;3.40;;;;;;;18.30;69.75;102267.72;5346211;28;20031;-74
2022/07/10 22:11:35;;;;;;;5.47;3.20;;;;;;;18.17;70.26;102262.69;5346631;28;20136;-75
2022/07/10 22:14:06;;;;;;;8.57;3.50;;;;;;;18.06;70.61;102262.03;5349778;27;20086;-74
2022/07/10 22:16:38;;;;;;;8.77;3.20;;;;;;;17.99;70.85;102252.53;5348856;27;20039;-74
2022/07/10 22:19:09;;;;;;;8.93;3.87;;;;;;;17.85;71.51;102255.41;5350532;27;20131;-75
2022/07/10 22:21:41;;;;;;;9.30;3.43;;;;;;;17.92;71.47;102266.72;5350507;27;20027;-74
2022/07/10 22:24:13;;;;;;;6.47;3.28;;;;;;;17.84;71.97;102264.25;5350198;27;20111;-74
2022/07/10 22:26:44;;;;;;;8.13;3.10;;;;;;;17.93;72.58;102260.56;5348717;27;20086;-75
2022/07/10 22:29:15;;;;;;;5.70;3.30;;;;;;;17.61;73.12;102268.19;5349728;27;20521;-74
2022/07/10 22:31:47;;;;;;;9.60;3.30;;;;;;;17.51;73.38;102263.97;5348843;27;20458;-74
2022/07/10 22:34:18;;;;;;;7.63;3.50;;;;;;;17.43;74.62;102265.88;5349604;27;20031;-74
2022/07/10 22:36:50;;;;;;;10.67;3.97;;;;;;;17.22;75.39;102259.22;5349916;27;20031;-74
2022/07/10 22:39:21;;;;;;;5.90;3.70;;;;;;;17.12;76.29;102256.72;5348423;27;20033;-74
2022/07/10 22:41:52;;;;;;;7.27;3.97;;;;;;;17.04;76.59;102257.75;5331449;27;20123;-74
2022/07/10 22:44:24;;;;;;;6.07;3.43;;;;;;;17.19;75.98;102264.53;5349596;27;20024;-75
2022/07/10 22:46:55;;;;;;;6.57;3.47;;;;;;;16.97;76.67;102262.25;5347920;27;20423;-74
2022/07/10 22:49:27;;;;;;;8.80;3.57;;;;;;;16.97;77.07;102262.25;5349473;27;20020;-75
2022/07/10 22:51:58;;;;;;;7.83;3.63;;;;;;;16.95;77.23;102264.91;5349839;27;20038;-75
2022/07/10 22:54:29;;;;;;;8.67;3.70;;;;;;;17.03;77.13;102262.13;5349193;27;20369;-75
2022/07/10 22:57:01;;;;;;;4.90;3.10;;;;;;;16.98;76.94;102260.47;5349585;27;20035;-75
2022/07/10 22:59:32;;;;;;;10.53;3.80;;;;;;;17.09;76.99;102256.75;5349057;27;20038;-75
2022/07/10 23:02:04;;;;;;;6.83;3.30;;;;;;;17.14;76.84;102256.69;5348784;27;20039;-75
2022/07/10 23:04:35;;;;;;;9.57;4.17;;;;;;;17.17;76.62;102256.66;5349097;27;20430;-75
2022/07/10 23:07:07;;;;;;;5.90;3.43;;;;;;;17.06;77.30;102261.22;5350333;27;20031;-75
2022/07/10 23:09:38;;;;;;;7.30;3.67;;;;;;;16.99;77.21;102252.56;5353567;27;20083;-75
2022/07/10 23:12:09;;;;;;;6.73;3.80;;;;;;;16.92;77.57;102256.16;5351003;27;20041;-73
2022/07/10 23:14:41;;;;;;;8.53;4.70;;;;;;;16.70;78.52;102251.22;5351034;27;20063;-74
2022/07/10 23:17:13;;;;;;;5.77;3.23;;;;;;;16.94;77.81;102246.50;5349449;27;20043;-73
2022/07/10 23:19:44;;;;;;;4.80;3.70;;;;;;;16.69;78.78;102252.09;5348863;27;20422;-74
2022/07/10 23:22:16;;;;;;;7.30;4.70;;;;;;;16.79;78.40;102247.56;5348630;27;20039;-74
2022/07/10 23:24:47;;;;;;;9.10;4.53;;;;;;;16.62;79.29;102242.56;5348677;27;20151;-74
2022/07/10 23:27:19;;;;;;;8.90;4.10;;;;;;;16.81;78.95;102240.53;5329930;27;20056;-74
2022/07/10 23:29:51;;;;;;;6.88;3.85;;;;;;;16.63;79.48;102238.16;5348666;27;20030;-73
2022/07/10 23:32:23;;;;;;;10.95;4.97;;;;;;;16.68;79.62;102237.22;5346694;27;20035;-74
2022/07/10 23:34:55;;;;;;;5.65;4.13;;;;;;;16.44;80.32;102230.53;5348365;27;20109;-74
2022/07/10 23:37:27;;;;;;;7.40;3.63;;;;;;;16.56;80.31;102237.38;5348294;27;20084;-74
2022/07/10 23:39:59;;;;;;;8.55;3.75;;;;;;;16.56;80.24;102232.13;5348240;27;20042;-74
2022/07/10 23:42:31;;;;;;;10.13;4.57;;;;;;;16.48;80.72;102231.34;5348111;27;20027;-73
2022/07/10 23:45:03;;;;;;;7.43;3.97;;;;;;;16.26;81.38;102231.66;5347892;27;20035;-74
2022/07/10 23:47:34;;;;;;;10.03;4.33;;;;;;;16.58;80.51;102230.31;5347653;27;20041;-74
2022/07/10 23:50:06;;;;;;;7.63;4.47;;;;;;;16.46;80.94;102226.13;5348095;27;20487;-74
2022/07/10 23:52:42;;;;;;;6.57;4.43;;;;;;;16.50;81.22;102221.66;5347959;27;20027;-75
2022/07/10 23:55:14;;;;;;;9.88;4.45;;;;;;;16.43;81.12;102223.53;5346637;27;20057;-74
2022/07/10 23:57:45;;;;;;;11.30;5.87;;;;;;;16.25;82.04;102236.94;5346634;27;20500;-75
